Time;durP1;ratioP1;P1;durP2;ratioP2;P2;SDS_P1;SDS_P2;PMS_P1;PMS_P2;Temp;Humidity;BMP_temperature;BMP_pressure;BME280_temperature;BME280_humidity;BME280_pressure;Samples;Min_cycle;Max_cycle;Signal;HPM_P1;HPM_P2
2022/11/11 00:00:36;;;;;;;7.95;4.72;;;10.20;99.90;;;;;;5084194;28;20103;-39
2022/11/11 00:03:03;;;;;;;7.22;4.80;;;10.20;99.90;;;;;;5070781;28;20025;-36
2022/11/11 00:05:28;;;;;;;9.48;5.25;;;10.20;99.90;;;;;;5082298;28;20047;-38
2022/11/11 00:07:58;;;;;;;8.75;5.35;;;10.20;99.90;;;;;;5074200;28;20020;-41
2022/11/11 00:10:28;;;;;;;8.70;5.18;;;10.20;99.90;;;;;;5080772;28;20039;-40
2022/11/11 00:12:56;;;;;;;9.27;5.13;;;10.20;99.90;;;;;;5070973;28;20028;-41
2022/11/11 00:15:22;;;;;;;9.63;5.68;;;10.20;99.90;;;;;;5066600;28;20036;-41
2022/11/11 00:26:07;;;;;;;7.82;4.68;;;10.30;99.90;;;;;;5063034;28;20055;-40
2022/11/11 00:28:32;;;;;;;6.85;4.70;;;10.40;99.90;;;;;;5072140;28;20161;-39
2022/11/11 00:31:06;;;;;;;7.35;5.00;;;10.40;99.90;;;;;;5066372;28;20025;-40
2022/11/11 00:33:33;;;;;;;7.90;5.25;;;10.50;99.90;;;;;;5069954;28;20025;-40
2022/11/11 00:35:59;;;;;;;7.70;5.63;;;10.50;99.90;;;;;;5067411;28;20080;-41
2022/11/11 00:38:44;;;;;;;7.75;5.32;;;10.60;99.90;;;;;;5067779;28;20027;-42
2022/11/11 00:41:17;;;;;;;9.70;5.93;;;10.60;99.90;;;;;;5066581;28;20024;-40
2022/11/11 00:43:44;;;;;;;10.48;5.18;;;10.60;99.90;;;;;;5069620;28;20097;-41
2022/11/11 00:51:39;;;;;;;11.65;6.82;;;10.70;99.90;;;;;;5066481;28;20055;-40
2022/11/11 00:54:05;;;;;;;9.30;6.93;;;10.70;99.90;;;;;;5069269;28;20058;-40
2022/11/11 00:56:31;;;;;;;10.55;6.93;;;10.70;99.90;;;;;;5068858;28;20055;-40
2022/11/11 00:58:57;;;;;;;12.98;7.07;;;10.70;99.90;;;;;;5067266;28;20024;-40
2022/11/11 01:01:23;;;;;;;13.27;6.93;;;10.70;99.90;;;;;;5070403;28;20036;-41
2022/11/11 01:03:48;;;;;;;7.68;6.53;;;10.70;99.90;;;;;;5069146;28;20538;-41
2022/11/11 01:06:14;;;;;;;8.50;7.25;;;10.80;99.90;;;;;;5071392;28;20036;-42
2022/11/11 01:08:39;;;;;;;9.60;7.53;;;10.80;99.90;;;;;;5080725;28;20025;-41
2022/11/11 01:11:16;;;;;;;8.27;7.18;;;10.80;99.90;;;;;;5074301;28;20032;-40
2022/11/11 01:13:43;;;;;;;9.25;6.55;;;10.80;99.90;;;;;;5085524;28;20028;-40
2022/11/11 01:16:14;;;;;;;13.77;9.32;;;10.80;99.90;;;;;;5076253;28;20028;-41
2022/11/11 01:18:43;;;;;;;10.77;8.73;;;10.80;99.90;;;;;;5066225;28;20027;-41
2022/11/11 01:21:26;;;;;;;9.55;8.00;;;10.80;99.90;;;;;;5078066;28;20024;-42
2022/11/11 01:23:52;;;;;;;9.00;7.90;;;10.80;99.90;;;;;;5065689;28;20104;-41
2022/11/11 01:26:21;;;;;;;12.88;9.07;;;10.90;99.90;;;;;;5078500;28;20132;-41
2022/11/11 01:28:51;;;;;;;12.90;9.57;;;10.80;99.90;;;;;;5066621;28;20017;-41
2022/11/11 01:31:19;;;;;;;10.27;8.40;;;10.80;99.90;;;;;;5078281;28;20062;-41
2022/11/11 01:33:45;;;;;;;11.13;9.13;;;10.80;99.90;;;;;;5066416;28;20044;-41
2022/11/11 01:36:18;;;;;;;9.95;8.75;;;10.90;99.90;;;;;;5078177;28;20048;-41
2022/11/11 01:38:47;;;;;;;;;;;10.90;99.90;;;;;;5066664;28;20024;-40
2022/11/11 01:41:34;;;;;;;13.32;8.45;;;10.90;99.90;;;;;;5076454;28;19985;-40
2022/11/11 01:44:00;;;;;;;14.07;9.90;;;10.90;99.90;;;;;;5064884;28;20364;-40
2022/11/11 01:46:44;;;;;;;11.68;9.00;;;10.90;99.90;;;;;;5076966;28;20024;-40
2022/11/11 01:49:28;;;;;;;12.07;9.02;;;10.90;99.90;;;;;;5076781;28;20020;-41
2022/11/11 01:52:04;;;;;;;13.00;9.93;;;10.90;99.90;;;;;;5079749;28;20031;-41
2022/11/11 01:54:53;;;;;;;11.85;9.98;;;10.90;99.90;;;;;;5065386;28;20032;-38
2022/11/11 01:57:23;;;;;;;13.80;10.35;;;10.90;99.90;;;;;;5077870;28;20028;-40
2022/11/11 01:59:59;;;;;;;13.43;10.48;;;10.90;99.90;;;;;;5065663;28;20128;-40
2022/11/11 02:02:47;;;;;;;12.65;10.88;;;10.90;99.90;;;;;;5077331;28;20771;-40
2022/11/11 02:08:33;;;;;;;14.07;10.80;;;11.00;99.90;;;;;;5076963;28;20086;-41
2022/11/11 02:11:10;;;;;;;15.63;11.43;;;11.00;99.90;;;;;;5066391;28;20577;-41
2022/11/11 02:16:26;;;;;;;14.90;11.57;;;11.00;99.90;;;;;;5082368;28;20110;-42
2022/11/11 02:18:52;;;;;;;11.13;9.63;;;11.00;99.90;;;;;;5074977;28;20024;-40
2022/11/11 02:21:42;;;;;;;13.07;10.60;;;11.00;99.90;;;;;;5082608;28;20445;-40
2022/11/11 02:24:13;;;;;;;14.15;10.68;;;11.10;99.90;;;;;;5076260;28;20043;-40
2022/11/11 02:26:39;;;;;;;14.18;10.55;;;11.10;99.90;;;;;;5082636;28;20028;-41
2022/11/11 02:29:16;;;;;;;15.38;11.00;;;11.10;99.90;;;;;;5074248;28;20486;-41
2022/11/11 02:31:42;;;;;;;14.10;10.48;;;11.10;99.90;;;;;;5084287;28;20016;-40
2022/11/11 02:34:07;;;;;;;14.38;10.38;;;11.10;99.90;;;;;;5073021;28;20773;-41
2022/11/11 02:36:33;;;;;;;10.52;9.07;;;11.10;99.90;;;;;;5083593;28;20044;-41
2022/11/11 02:38:59;;;;;;;15.32;11.45;;;11.10;99.90;;;;;;5073724;28;20133;-39
2022/11/11 02:44:08;;;;;;;12.90;10.75;;;11.10;99.90;;;;;;5073432;28;20031;-41
2022/11/11 02:46:34;;;;;;;15.98;10.98;;;11.20;99.90;;;;;;5085591;28;20024;-41
2022/11/11 02:48:59;;;;;;;13.65;11.25;;;11.20;99.90;;;;;;5071610;28;20487;-41
2022/11/11 02:51:25;;;;;;;11.63;10.43;;;11.20;99.90;;;;;;5084838;28;20592;-40
2022/11/11 02:53:51;;;;;;;11.77;9.20;;;11.20;99.90;;;;;;5071226;28;20475;-40
2022/11/11 02:57:05;;;;;;;12.02;9.65;;;11.20;99.90;;;;;;5084379;28;20036;-42
2022/11/11 02:59:02;;;;;;;14.20;10.75;;;11.20;99.90;;;;;;5071425;28;20033;-41
2022/11/11 03:01:27;;;;;;;13.02;10.88;;;11.20;99.90;;;;;;5084120;28;20476;-38
2022/11/11 03:03:53;;;;;;;14.88;10.95;;;11.20;99.90;;;;;;5073935;28;20032;-38
2022/11/11 03:06:18;;;;;;;11.50;9.98;;;11.20;99.90;;;;;;5081769;28;20040;-41
2022/11/11 03:08:44;;;;;;;14.90;11.07;;;11.20;99.90;;;;;;5076513;28;20487;-38
2022/11/11 03:11:09;;;;;;;14.55;11.68;;;11.20;99.90;;;;;;5079150;28;20463;-40
2022/11/11 03:13:35;;;;;;;14.13;10.90;;;11.20;99.90;;;;;;5079225;28;20127;-40
2022/11/11 03:16:00;;;;;;;14.55;10.43;;;11.20;99.90;;;;;;5076580;28;20031;-40
2022/11/11 03:18:29;;;;;;;11.93;10.02;;;11.20;99.90;;;;;;5080718;28;20027;-40
2022/11/11 03:21:03;;;;;;;13.63;10.73;;;11.30;99.90;;;;;;5074904;28;20038;-40
2022/11/11 03:23:29;;;;;;;13.82;10.43;;;11.30;99.90;;;;;;5082039;28;20104;-41
2022/11/11 03:25:54;;;;;;;11.73;9.77;;;11.30;99.90;;;;;;5073276;28;20036;-41
2022/11/11 03:28:20;;;;;;;13.15;10.18;;;11.30;99.90;;;;;;5083026;28;20051;-40
2022/11/11 03:30:48;;;;;;;11.60;10.35;;;11.20;99.90;;;;;;5072981;28;20020;-41
2022/11/11 03:33:14;;;;;;;12.32;8.85;;;11.20;99.90;;;;;;5083899;28;20426;-41
2022/11/11 03:35:40;;;;;;;13.73;10.55;;;11.20;99.90;;;;;;5071860;28;20028;-39
2022/11/11 03:38:14;;;;;;;12.27;9.57;;;11.20;99.90;;;;;;5083155;28;20113;-39
2022/11/11 03:40:42;;;;;;;11.25;9.45;;;11.20;99.90;;;;;;5071293;28;20028;-35
2022/11/11 03:43:07;;;;;;;12.27;10.25;;;11.20;99.90;;;;;;5082356;28;20485;-37
2022/11/11 03:45:33;;;;;;;13.85;9.60;;;11.20;99.90;;;;;;5071253;28;20040;-40
2022/11/11 03:47:59;;;;;;;10.02;8.88;;;11.20;99.90;;;;;;5084070;28;20035;-40
2022/11/11 03:50:24;;;;;;;10.35;8.05;;;11.20;99.90;;;;;;5072293;28;20035;-40
2022/11/11 03:52:50;;;;;;;12.00;9.65;;;11.20;99.90;;;;;;5081124;28;20817;-38
2022/11/11 03:55:15;;;;;;;13.40;9.77;;;11.20;99.90;;;;;;5075516;28;20417;-41
2022/11/11 03:57:44;;;;;;;12.93;9.30;;;11.20;99.90;;;;;;5077914;28;20819;-39
2022/11/11 04:00:11;;;;;;;12.70;9.20;;;11.20;99.90;;;;;;5078156;28;20082;-40
2022/11/11 04:11:11;;;;;;;9.15;7.82;;;11.20;99.90;;;;;;5073683;28;20093;-39
2022/11/11 04:16:21;;;;;;;9.70;8.35;;;11.20;99.90;;;;;;5072326;28;20706;-39
2022/11/11 04:21:43;;;;;;;12.10;9.88;;;11.20;99.90;;;;;;5072587;28;20736;-41
2022/11/11 04:26:57;;;;;;;11.90;9.60;;;11.20;99.90;;;;;;5070218;28;20055;-40
2022/11/11 04:29:29;;;;;;;12.63;9.25;;;11.10;99.90;;;;;;5084481;28;20016;-40
2022/11/11 04:34:52;;;;;;;11.55;9.55;;;11.10;99.90;;;;;;5066497;28;20036;-40
2022/11/11 04:37:19;;;;;;;11.40;9.20;;;11.10;99.90;;;;;;5075646;28;20062;-42
2022/11/11 04:42:30;;;;;;;13.65;8.88;;;11.10;99.90;;;;;;5078517;28;20422;-40
2022/11/11 04:48:05;;;;;;;9.48;6.93;;;11.10;99.90;;;;;;5079557;28;20050;-40
2022/11/11 04:50:35;;;;;;;14.05;9.75;;;11.20;99.90;;;;;;5066969;28;20032;-41
2022/11/11 04:53:01;;;;;;;13.85;9.25;;;11.10;99.90;;;;;;5079057;28;20024;-41
2022/11/11 04:58:12;;;;;;;12.90;9.52;;;11.10;99.90;;;;;;5079192;28;20082;-41
2022/11/11 05:00:38;;;;;;;9.82;8.35;;;11.10;99.90;;;;;;5066619;28;20567;-41
2022/11/11 05:03:22;;;;;;;11.82;7.72;;;11.10;99.90;;;;;;5078727;28;20844;-39
2022/11/11 05:11:20;;;;;;;11.93;9.65;;;11.10;99.90;;;;;;5073275;28;20035;-40
2022/11/11 05:22:34;;;;;;;8.90;8.00;;;11.00;99.90;;;;;;5067310;28;20039;-39
2022/11/11 05:27:44;;;;;;;11.73;8.18;;;11.00;99.90;;;;;;5085024;28;20078;-39
2022/11/11 05:30:11;;;;;;;10.80;8.30;;;11.10;99.90;;;;;;5075170;28;20111;-40
2022/11/11 05:32:38;;;;;;;10.80;8.63;;;11.10;99.90;;;;;;5084892;28;20025;-41
2022/11/11 05:35:04;;;;;;;11.40;8.55;;;11.10;99.90;;;;;;5075439;28;20066;-41
2022/11/11 05:37:30;;;;;;;10.90;8.43;;;11.10;99.90;;;;;;5084817;28;20731;-39
2022/11/11 05:39:58;;;;;;;9.13;7.55;;;11.10;99.90;;;;;;5074880;28;20112;-40
2022/11/11 05:42:24;;;;;;;9.32;8.07;;;11.10;99.90;;;;;;5086548;28;20497;-40
2022/11/11 05:44:53;;;;;;;13.00;8.07;;;11.10;99.90;;;;;;5072058;28;20123;-40
2022/11/11 05:47:18;;;;;;;11.73;8.05;;;11.10;99.90;;;;;;5085904;28;20482;-41
2022/11/11 05:49:44;;;;;;;10.35;8.38;;;11.10;99.90;;;;;;5073188;28;20040;-40
2022/11/11 05:52:11;;;;;;;10.05;7.55;;;11.10;99.90;;;;;;5085866;28;20035;-41
2022/11/11 05:54:36;;;;;;;11.75;8.48;;;11.10;99.90;;;;;;5075155;28;20065;-41
2022/11/11 05:57:03;;;;;;;7.85;6.50;;;11.10;99.90;;;;;;5083089;28;20028;-40
2022/11/11 05:59:29;;;;;;;10.07;8.50;;;11.00;99.90;;;;;;5077599;28;20040;-41
2022/11/11 06:01:55;;;;;;;12.23;8.30;;;11.00;99.90;;;;;;5081765;28;20032;-41
2022/11/11 06:04:20;;;;;;;11.50;8.05;;;11.00;99.90;;;;;;5079704;28;20753;-39
2022/11/11 06:06:46;;;;;;;11.80;6.88;;;11.00;99.90;;;;;;5078942;28;20020;-41
2022/11/11 06:09:12;;;;;;;10.13;8.00;;;11.00;99.90;;;;;;5082062;28;20020;-38
2022/11/11 06:11:37;;;;;;;12.35;8.77;;;11.00;99.90;;;;;;5076247;28;20742;-41
2022/11/11 06:14:03;;;;;;;14.10;8.80;;;11.00;99.90;;;;;;5084262;28;20399;-41
2022/11/11 06:16:28;;;;;;;14.18;8.38;;;11.00;99.90;;;;;;5074145;28;20336;-41
2022/11/11 06:18:54;;;;;;;11.45;8.52;;;11.00;99.90;;;;;;5083373;28;20031;-39
2022/11/11 06:21:20;;;;;;;11.38;8.65;;;11.00;99.90;;;;;;5074038;28;20016;-40
2022/11/11 06:23:45;;;;;;;10.32;8.48;;;11.00;99.90;;;;;;5085591;28;20032;-40
2022/11/11 06:26:11;;;;;;;11.38;8.02;;;10.90;99.90;;;;;;5071318;28;20468;-40
2022/11/11 06:28:48;;;;;;;10.63;8.48;;;10.90;99.90;;;;;;5085381;28;20036;-41
2022/11/11 06:31:17;;;;;;;13.45;9.23;;;10.90;99.90;;;;;;5072335;28;20357;-40
2022/11/11 06:33:43;;;;;;;12.40;8.40;;;10.90;99.90;;;;;;5084623;28;20421;-41
2022/11/11 06:36:12;;;;;;;10.70;7.82;;;10.90;99.90;;;;;;5072455;28;20573;-41
2022/11/11 06:38:38;;;;;;;11.20;8.70;;;10.90;99.90;;;;;;5065279;28;20131;-41
2022/11/11 06:41:03;;;;;;;10.60;7.68;;;10.90;99.90;;;;;;5074523;28;20050;-40
2022/11/11 06:43:29;;;;;;;9.10;7.35;;;10.90;99.90;;;;;;5067771;28;20025;-42
2022/11/11 06:45:55;;;;;;;8.82;7.80;;;10.90;99.90;;;;;;5070332;28;20059;-40
2022/11/11 06:48:22;;;;;;;11.60;8.80;;;10.90;99.90;;;;;;5069947;28;20021;-40
2022/11/11 06:50:48;;;;;;;12.43;8.98;;;10.90;99.90;;;;;;5069576;28;20115;-42
2022/11/11 06:53:15;;;;;;;11.50;8.88;;;10.90;99.90;;;;;;5071239;28;20158;-41
2022/11/11 06:55:41;;;;;;;10.43;8.18;;;10.80;99.90;;;;;;5067444;28;20111;-37
2022/11/11 06:58:12;;;;;;;11.45;9.00;;;10.80;99.90;;;;;;5074812;28;20487;-40
2022/11/11 07:00:39;;;;;;;12.52;9.38;;;10.80;99.90;;;;;;5065318;28;20104;-39
2022/11/11 07:03:06;;;;;;;10.40;8.73;;;10.80;99.90;;;;;;5075903;28;20491;-42
2022/11/11 07:05:32;;;;;;;10.13;7.70;;;10.80;99.90;;;;;;5065378;28;20043;-40
2022/11/11 07:08:02;;;;;;;9.48;7.78;;;10.80;99.90;;;;;;5074040;28;20372;-41
2022/11/11 07:10:27;;;;;;;12.40;10.38;;;10.80;99.90;;;;;;5064685;28;20028;-41
2022/11/11 07:12:53;;;;;;;12.48;9.32;;;10.80;99.90;;;;;;5076567;28;20098;-39
2022/11/11 07:15:18;;;;;;;10.95;8.90;;;10.80;99.90;;;;;;5063581;28;20032;-41
2022/11/11 07:17:44;;;;;;;11.73;9.30;;;10.80;99.90;;;;;;5075553;28;20275;-41
2022/11/11 07:20:10;;;;;;;10.15;8.23;;;10.80;99.90;;;;;;5080405;28;20027;-41
2022/11/11 07:22:36;;;;;;;13.15;10.10;;;10.80;99.90;;;;;;5078955;28;20032;-41
2022/11/11 07:25:02;;;;;;;13.55;10.25;;;10.80;99.90;;;;;;5084054;28;20384;-42
2022/11/11 07:27:27;;;;;;;12.73;9.65;;;10.80;99.90;;;;;;5074939;28;20024;-42
2022/11/11 07:30:00;;;;;;;11.93;8.93;;;10.70;99.90;;;;;;5056515;28;20978;-40
2022/11/11 07:32:26;;;;;;;12.50;9.73;;;10.70;99.90;;;;;;5053048;28;20132;-39
2022/11/11 07:34:51;;;;;;;13.38;9.70;;;10.70;99.90;;;;;;5058781;28;20690;-40
2022/11/11 07:37:23;;;;;;;11.85;9.82;;;10.70;99.90;;;;;;5059180;28;20600;-42
2022/11/11 07:39:48;;;;;;;12.20;9.95;;;10.70;99.90;;;;;;5060006;28;20043;-41
2022/11/11 07:42:20;;;;;;;11.77;10.35;;;10.70;99.90;;;;;;5059230;28;20024;-40
2022/11/11 07:44:45;;;;;;;17.20;11.85;;;10.70;99.90;;;;;;5059842;28;20115;-39
2022/11/11 07:47:11;;;;;;;16.98;12.88;;;10.70;99.90;;;;;;5059091;28;20028;-40
2022/11/11 07:49:40;;;;;;;17.23;13.98;;;10.70;99.90;;;;;;5059177;28;20110;-41
2022/11/11 07:52:05;;;;;;;15.25;13.25;;;10.70;99.90;;;;;;5060172;28;20025;-41
2022/11/11 07:54:31;;;;;;;18.00;12.70;;;10.60;99.90;;;;;;5059499;28;20021;-39
2022/11/11 07:56:56;;;;;;;18.90;13.32;;;10.60;99.90;;;;;;5058632;28;20368;-41
2022/11/11 07:59:22;;;;;;;15.95;13.55;;;10.50;99.90;;;;;;5059765;28;20435;-41
2022/11/11 08:01:48;;;;;;;18.60;14.35;;;10.50;99.90;;;;;;5060255;28;20060;-40
2022/11/11 08:04:13;;;;;;;17.45;13.20;;;10.50;99.90;;;;;;5057135;28;20033;-40
2022/11/11 08:06:39;;;;;;;13.73;11.88;;;10.50;99.90;;;;;;5054565;28;20109;-40
2022/11/11 08:09:04;;;;;;;16.70;13.45;;;10.50;99.90;;;;;;5058986;28;20032;-41
2022/11/11 08:14:14;;;;;;;15.23;12.10;;;10.40;99.90;;;;;;5058405;28;20144;-40
2022/11/11 08:16:40;;;;;;;17.58;13.07;;;10.40;99.90;;;;;;5059337;28;20020;-40
2022/11/11 08:19:05;;;;;;;16.85;12.75;;;10.40;99.90;;;;;;5058128;28;20025;-41
2022/11/11 08:21:31;;;;;;;18.13;13.13;;;10.40;99.90;;;;;;5058982;28;20417;-41
2022/11/11 08:23:56;;;;;;;17.30;14.23;;;10.30;99.90;;;;;;5058753;28;20020;-41
2022/11/11 08:26:22;;;;;;;14.30;11.25;;;10.30;99.90;;;;;;5058397;28;20024;-40
2022/11/11 08:28:50;;;;;;;17.10;13.13;;;10.30;99.90;;;;;;5059141;28;20114;-41
2022/11/11 08:31:15;;;;;;;14.95;12.73;;;10.30;99.90;;;;;;5058568;28;20048;-38
2022/11/11 08:33:41;;;;;;;15.88;12.65;;;10.30;99.90;;;;;;5058407;28;20070;-38
2022/11/11 08:36:06;;;;;;;16.63;13.38;;;10.30;99.90;;;;;;5058984;28;20039;-40
2022/11/11 08:38:33;;;;;;;14.05;11.88;;;10.40;99.90;;;;;;5058429;28;20025;-39
2022/11/11 08:41:00;;;;;;;18.00;12.60;;;10.40;99.90;;;;;;5044331;28;20021;-41
2022/11/11 08:43:25;;;;;;;15.68;12.07;;;10.40;99.90;;;;;;5045953;28;20017;-38
2022/11/11 08:45:52;;;;;;;14.70;11.80;;;10.40;99.90;;;;;;5044434;28;20775;-41
2022/11/11 08:48:18;;;;;;;10.07;8.90;;;10.40;99.90;;;;;;5045060;28;20100;-40
2022/11/11 08:50:43;;;;;;;13.07;10.10;;;10.40;99.90;;;;;;5045993;28;20465;-40
2022/11/11 08:53:09;;;;;;;12.13;9.60;;;10.40;99.90;;;;;;5045150;28;20029;-35
2022/11/11 08:55:35;;;;;;;13.27;9.63;;;10.40;99.90;;;;;;5044765;28;20033;-41
2022/11/11 08:58:05;;;;;;;13.30;10.00;;;10.40;99.90;;;;;;5045535;28;20036;-39
2022/11/11 09:00:32;;;;;;;13.23;9.93;;;10.40;99.90;;;;;;5044508;28;20033;-40
2022/11/11 09:03:08;;;;;;;11.50;9.60;;;10.40;99.90;;;;;;5040660;28;20040;-40
2022/11/11 09:05:34;;;;;;;12.48;9.60;;;10.40;99.90;;;;;;5045323;28;20138;-41
2022/11/11 09:08:00;;;;;;;12.00;9.95;;;10.40;99.90;;;;;;5044419;28;20044;-41
2022/11/11 09:10:26;;;;;;;11.63;9.98;;;10.30;99.90;;;;;;5044662;28;20032;-40
2022/11/11 09:12:58;;;;;;;10.45;8.30;;;10.30;99.90;;;;;;5044875;28;20682;-41
2022/11/11 09:15:24;;;;;;;12.43;9.02;;;10.30;99.90;;;;;;5041532;28;20032;-41
2022/11/11 09:17:49;;;;;;;11.38;8.68;;;10.40;99.90;;;;;;5045218;28;20025;-42
2022/11/11 09:20:18;;;;;;;9.60;7.60;;;10.30;99.90;;;;;;5045607;28;20591;-42
2022/11/11 09:22:45;;;;;;;10.15;8.15;;;10.30;99.90;;;;;;5044092;28;20017;-41
2022/11/11 09:25:11;;;;;;;10.40;8.85;;;10.30;99.90;;;;;;5043951;28;20033;-43
2022/11/11 09:27:37;;;;;;;12.20;9.63;;;10.30;99.90;;;;;;5044279;28;20021;-38
2022/11/11 09:30:04;;;;;;;9.40;8.00;;;10.30;99.90;;;;;;5045180;28;20036;-41
2022/11/11 09:32:30;;;;;;;14.43;10.43;;;10.30;99.90;;;;;;5043866;28;20024;-39
2022/11/11 09:34:55;;;;;;;12.13;9.40;;;10.30;99.90;;;;;;5044439;28;20037;-42
2022/11/11 09:37:21;;;;;;;8.80;7.90;;;10.30;99.90;;;;;;5044208;28;20040;-40
2022/11/11 09:39:47;;;;;;;12.15;9.10;;;10.30;99.90;;;;;;5045177;28;20819;-41
2022/11/11 09:42:38;;;;;;;10.30;9.18;;;10.30;99.90;;;;;;5043809;28;20079;-41
2022/11/11 09:45:14;;;;;;;13.27;9.48;;;10.40;99.90;;;;;;5025082;28;20037;-41
2022/11/11 09:48:01;;;;;;;11.27;8.98;;;10.40;99.90;;;;;;5042341;28;20031;-43
2022/11/11 09:50:30;;;;;;;10.27;8.60;;;10.40;99.90;;;;;;5044189;28;20032;-39
2022/11/11 09:53:13;;;;;;;11.10;9.38;;;10.40;99.90;;;;;;5043339;28;20499;-41
2022/11/11 09:55:40;;;;;;;;;;;10.50;99.90;;;;;;5044253;28;20618;-39
2022/11/11 09:58:23;;;;;;;10.23;8.63;;;10.50;99.90;;;;;;5044520;28;19913;-40
2022/11/11 10:01:13;;;;;;;14.23;10.52;;;10.50;99.90;;;;;;5043836;28;20584;-38
2022/11/11 10:03:45;;;;;;;16.08;9.40;;;10.60;99.90;;;;;;5043067;28;20396;-42
2022/11/11 10:06:22;;;;;;;12.55;9.10;;;10.60;99.90;;;;;;5043827;28;20036;-42
2022/11/11 10:09:01;;;;;;;11.43;8.57;;;10.60;99.90;;;;;;5043566;28;20037;-41
2022/11/11 10:11:43;;;;;;;9.90;8.35;;;10.70;99.90;;;;;;5043570;28;20568;-38
2022/11/11 10:14:08;;;;;;;10.00;8.35;;;10.70;99.90;;;;;;5040484;28;20827;-40
2022/11/11 10:17:24;;;;;;;10.35;8.07;;;10.80;99.90;;;;;;5044353;28;20098;-39
2022/11/11 10:20:24;;;;;;;10.25;8.20;;;10.80;99.90;;;;;;5020813;28;20051;-43
2022/11/11 10:22:59;;;;;;;9.70;7.57;;;10.90;99.90;;;;;;4995157;28;20049;-40
2022/11/11 10:25:26;;;;;;;12.55;7.80;;;11.00;99.90;;;;;;5038793;28;20883;-40
2022/11/11 10:27:55;;;;;;;9.20;7.57;;;11.00;99.90;;;;;;5046334;28;20025;-40
2022/11/11 10:30:20;;;;;;;11.07;8.40;;;11.10;99.90;;;;;;5052314;28;20045;-41
2022/11/11 10:32:53;;;;;;;8.63;6.93;;;11.20;99.90;;;;;;5043247;28;20029;-40
2022/11/11 10:35:20;;;;;;;;;;;11.20;99.90;;;;;;5034001;28;20021;-41
2022/11/11 10:37:50;;;;;;;8.35;6.53;;;11.30;99.90;;;;;;5043321;28;19942;-42
2022/11/11 10:40:31;;;;;;;8.35;7.40;;;11.40;99.90;;;;;;5043566;28;20028;-41
2022/11/11 10:42:56;;;;;;;8.77;7.32;;;11.40;99.90;;;;;;5043574;28;20082;-40
2022/11/11 10:45:46;;;;;;;11.07;6.90;;;11.50;99.90;;;;;;5043302;28;20404;-40
2022/11/11 10:48:17;;;;;;;8.90;6.75;;;11.50;99.90;;;;;;5043030;28;20029;-38
2022/11/11 10:50:56;;;;;;;9.63;7.10;;;11.60;99.90;;;;;;5043226;28;20215;-40
2022/11/11 10:53:32;;;;;;;6.93;6.13;;;11.60;99.90;;;;;;5042809;28;20024;-38
2022/11/11 10:56:00;;;;;;;7.53;6.22;;;11.70;99.90;;;;;;5032804;28;20036;-41
2022/11/11 10:58:37;;;;;;;7.97;6.50;;;11.80;99.90;;;;;;5043279;28;20017;-41
2022/11/11 11:01:07;;;;;;;8.73;6.18;;;11.90;99.90;;;;;;5042659;28;20033;-41
2022/11/11 11:04:03;;;;;;;9.32;6.13;;;11.90;99.90;;;;;;5042244;28;20518;-41
2022/11/11 11:06:33;;;;;;;6.95;5.82;;;11.90;99.90;;;;;;5040951;28;20033;-40
2022/11/11 11:09:05;;;;;;;8.02;5.25;;;12.00;99.90;;;;;;5039878;28;20033;-41
2022/11/11 11:11:53;;;;;;;7.47;5.40;;;12.10;99.90;;;;;;5041736;28;20078;-41
2022/11/11 11:14:41;;;;;;;6.35;5.32;;;12.20;99.90;;;;;;5041851;28;20032;-41
2022/11/11 11:17:14;;;;;;;8.88;5.13;;;12.20;99.90;;;;;;5040884;28;20021;-40
2022/11/11 11:19:39;;;;;;;;;;;12.30;99.90;;;;;;5031525;28;20060;-40
2022/11/11 11:22:05;;;;;;;6.20;4.68;;;12.40;99.90;;;;;;5042148;28;19947;-41
2022/11/11 11:24:38;;;;;;;7.90;5.93;;;12.40;99.90;;;;;;5042791;28;20044;-39
2022/11/11 11:27:06;;;;;;;8.25;5.90;;;12.50;99.90;;;;;;5040019;28;20491;-42
2022/11/11 11:29:41;;;;;;;7.30;5.82;;;12.50;99.90;;;;;;5042234;28;20100;-42
2022/11/11 11:32:20;;;;;;;8.60;6.13;;;12.50;99.90;;;;;;5043423;28;20029;-42
2022/11/11 11:34:48;;;;;;;7.20;5.47;;;12.50;99.90;;;;;;5042682;28;20025;-42
2022/11/11 11:37:15;;;;;;;9.80;5.90;;;12.50;99.90;;;;;;5042345;28;20539;-42
2022/11/11 11:39:40;;;;;;;6.35;4.95;;;12.50;99.90;;;;;;5042979;28;20021;-41
2022/11/11 11:42:06;;;;;;;6.90;4.53;;;12.60;99.90;;;;;;5042132;28;20029;-40
2022/11/11 11:44:37;;;;;;;6.50;5.47;;;12.60;99.90;;;;;;5042535;28;20056;-41
2022/11/11 11:47:14;;;;;;;7.03;5.45;;;12.50;99.90;;;;;;5041596;28;20029;-40
2022/11/11 11:50:25;;;;;;;10.00;5.80;;;12.50;99.90;;;;;;5041940;28;20124;-41
2022/11/11 11:53:02;;;;;;;6.28;5.15;;;12.50;99.90;;;;;;5031390;28;20423;-41
2022/11/11 11:55:54;;;;;;;5.18;4.38;;;12.50;99.90;;;;;;5041943;28;20091;-39
2022/11/11 11:58:30;;;;;;;5.35;4.50;;;12.50;99.90;;;;;;5033177;28;20044;-41
2022/11/11 12:01:10;;;;;;;5.80;5.13;;;12.50;99.90;;;;;;5042013;28;20033;-41
2022/11/11 12:03:48;;;;;;;6.00;5.28;;;12.50;99.90;;;;;;5041674;28;20025;-42
2022/11/11 12:06:34;;;;;;;8.00;5.43;;;12.50;99.90;;;;;;5041748;28;20159;-42
2022/11/11 12:09:13;;;;;;;7.90;5.35;;;12.40;99.90;;;;;;5042501;28;20041;-40
2022/11/11 12:11:58;;;;;;;6.22;5.05;;;12.40;99.90;;;;;;5041851;28;20021;-41
2022/11/11 12:14:55;;;;;;;5.82;4.30;;;12.40;99.90;;;;;;5042581;28;20029;-40
2022/11/11 12:17:27;;;;;;;4.68;4.18;;;12.40;99.90;;;;;;5045985;28;20070;-41
2022/11/11 12:20:17;;;;;;;6.22;4.75;;;12.40;99.90;;;;;;5046673;28;20025;-42
2022/11/11 12:22:51;;;;;;;6.32;4.85;;;12.40;99.90;;;;;;5046005;28;20484;-40
2022/11/11 12:25:39;;;;;;;9.43;5.57;;;12.40;99.90;;;;;;5025311;28;20031;-41
2022/11/11 12:28:52;;;;;;;6.85;5.38;;;12.40;99.90;;;;;;5041579;28;20619;-40
2022/11/11 12:31:39;;;;;;;6.22;4.45;;;12.40;99.90;;;;;;5045362;28;20110;-41
2022/11/11 12:34:33;;;;;;;5.82;4.82;;;12.40;99.90;;;;;;5045019;28;20060;-41
2022/11/11 12:37:31;;;;;;;4.32;3.85;;;12.40;99.90;;;;;;5045672;28;20040;-40
2022/11/11 12:40:13;;;;;;;5.63;4.45;;;12.30;99.90;;;;;;5045462;28;20029;-42
2022/11/11 12:42:41;;;;;;;5.10;4.07;;;12.40;99.90;;;;;;5044883;28;20028;-42
2022/11/11 12:45:15;;;;;;;4.82;4.18;;;12.30;99.90;;;;;;5041362;28;20436;-42
2022/11/11 12:48:07;;;;;;;6.57;4.47;;;12.30;99.90;;;;;;5045529;28;20688;-42
2022/11/11 12:51:07;;;;;;;4.82;3.97;;;12.40;99.90;;;;;;5033925;28;20052;-40
2022/11/11 12:53:45;;;;;;;5.50;4.28;;;12.40;99.90;;;;;;5044370;28;20503;-41
2022/11/11 12:56:37;;;;;;;4.57;3.90;;;12.40;99.90;;;;;;5045190;28;20104;-41
2022/11/11 12:59:26;;;;;;;4.72;4.00;;;12.40;99.90;;;;;;5044712;28;20058;-42
2022/11/11 13:02:19;;;;;;;5.22;3.95;;;12.40;99.90;;;;;;5044863;28;20029;-42
2022/11/11 13:05:12;;;;;;;6.40;3.95;;;12.40;99.90;;;;;;5044873;28;20027;-40
2022/11/11 13:08:18;;;;;;;4.72;3.55;;;12.40;99.90;;;;;;5045182;28;20025;-42
2022/11/11 13:10:55;;;;;;;5.55;3.78;;;12.40;99.90;;;;;;5037527;28;20112;-42
2022/11/11 13:13:39;;;;;;;4.18;3.42;;;12.40;99.90;;;;;;5044441;28;20376;-40
2022/11/11 13:16:08;;;;;;;5.68;3.88;;;12.40;99.90;;;;;;5045107;28;20112;-40
2022/11/11 13:18:48;;;;;;;3.85;2.78;;;12.40;99.90;;;;;;5045376;28;20357;-42
2022/11/11 13:21:19;;;;;;;3.70;3.40;;;12.50;99.90;;;;;;5044356;28;20068;-41
2022/11/11 13:23:48;;;;;;;4.03;3.00;;;12.50;99.90;;;;;;5045456;28;20027;-41
2022/11/11 13:26:22;;;;;;;3.65;3.10;;;12.50;99.90;;;;;;5044799;28;20380;-40
2022/11/11 13:28:50;;;;;;;3.92;3.25;;;12.50;99.90;;;;;;5044413;28;20029;-41
2022/11/11 13:31:33;;;;;;;4.30;3.20;;;12.60;99.90;;;;;;5045211;28;20044;-41
2022/11/11 13:34:04;;;;;;;4.60;3.20;;;12.60;99.90;;;;;;5046037;28;20035;-40
2022/11/11 13:36:42;;;;;;;4.13;3.40;;;12.60;99.90;;;;;;5044433;28;20029;-40
2022/11/11 13:39:22;;;;;;;3.92;3.20;;;12.60;99.90;;;;;;5041380;28;20017;-40
2022/11/11 13:41:52;;;;;;;3.85;2.95;;;12.60;99.90;;;;;;5044039;28;20033;-41
2022/11/11 13:44:31;;;;;;;3.60;3.08;;;12.60;99.90;;;;;;5044279;28;20040;-41
2022/11/11 13:47:05;;;;;;;3.65;3.22;;;12.60;99.90;;;;;;5043796;28;20047;-40
2022/11/11 13:49:44;;;;;;;3.47;3.17;;;12.70;99.90;;;;;;5043164;28;20036;-40
2022/11/11 13:53:12;;;;;;;4.03;3.00;;;12.70;99.90;;;;;;5044417;28;20052;-42
2022/11/11 13:55:46;;;;;;;4.28;3.10;;;12.70;99.90;;;;;;5016526;28;20045;-41
2022/11/11 13:58:27;;;;;;;5.40;3.42;;;12.80;99.90;;;;;;5044039;28;20028;-40
2022/11/11 14:01:02;;;;;;;4.43;3.30;;;12.80;99.90;;;;;;5043994;28;20033;-41
2022/11/11 14:03:33;;;;;;;6.53;3.42;;;12.80;99.90;;;;;;5024535;28;20036;-40
2022/11/11 14:06:34;;;;;;;4.97;3.53;;;12.80;99.90;;;;;;5038617;28;20036;-41
2022/11/11 14:09:00;;;;;;;4.60;3.08;;;12.90;99.90;;;;;;5022938;28;20088;-41
2022/11/11 14:11:25;;;;;;;4.20;3.13;;;12.90;99.90;;;;;;5040811;28;20021;-41
2022/11/11 14:13:55;;;;;;;4.55;3.55;;;12.90;99.90;;;;;;5044080;28;20927;-41